Time;durP1;ratioP1;P1;durP2;ratioP2;P2;SDS_P1;SDS_P2;PMS_P1;PMS_P2;Temp;Humidity;BMP_temperature;BMP_pressure;BME280_temperature;BME280_humidity;BME280_pressure;Samples;Min_cycle;Max_cycle;Signal;HPM_P1;HPM_P2
2021/04/27 00:00:47;;;;;;;9.13;5.50;;;4.60;65.00;;;;;;5232443;28;20395;-65
2021/04/27 00:03:19;;;;;;;9.85;5.93;;;4.60;64.50;;;;;;5203607;28;20045;-64
2021/04/27 00:05:51;;;;;;;8.55;5.70;;;4.60;64.30;;;;;;5202317;28;20056;-65
2021/04/27 00:08:22;;;;;;;9.35;5.32;;;4.60;64.20;;;;;;5200213;28;20474;-65
2021/04/27 00:10:54;;;;;;;9.05;5.35;;;4.70;64.00;;;;;;5200582;28;20069;-65
2021/04/27 00:13:27;;;;;;;9.02;5.50;;;4.70;64.80;;;;;;5203754;28;20148;-65
2021/04/27 00:15:59;;;;;;;9.40;5.78;;;4.60;64.60;;;;;;5203356;28;20164;-65
2021/04/27 00:18:31;;;;;;;9.13;5.30;;;4.50;64.50;;;;;;5205348;28;20507;-64
2021/04/27 00:21:03;;;;;;;12.57;5.72;;;4.50;64.80;;;;;;5231045;28;20037;-65
2021/04/27 00:23:35;;;;;;;8.75;5.05;;;4.30;66.00;;;;;;5235079;28;20076;-65
2021/04/27 00:26:06;;;;;;;9.20;5.43;;;4.20;66.80;;;;;;5203003;28;20049;-65
2021/04/27 00:28:38;;;;;;;8.48;5.43;;;4.00;67.20;;;;;;5202700;28;20052;-65
2021/04/27 00:31:10;;;;;;;9.15;5.78;;;3.90;68.70;;;;;;5200634;28;20458;-65
2021/04/27 00:33:41;;;;;;;7.78;5.15;;;3.80;68.20;;;;;;5200503;28;20045;-65
2021/04/27 00:36:13;;;;;;;10.00;5.50;;;3.80;68.00;;;;;;5199382;28;20582;-65
2021/04/27 00:38:44;;;;;;;10.75;5.63;;;3.90;67.70;;;;;;5205771;28;20129;-64
2021/04/27 00:41:16;;;;;;;9.70;5.65;;;3.90;68.00;;;;;;5234614;28;20083;-65
2021/04/27 00:43:47;;;;;;;8.98;5.55;;;3.80;68.10;;;;;;5201052;28;20399;-64
2021/04/27 00:46:19;;;;;;;9.05;5.15;;;3.80;68.50;;;;;;5217484;28;20030;-65
2021/04/27 00:48:50;;;;;;;8.40;5.20;;;3.80;68.50;;;;;;5201900;28;20049;-65
2021/04/27 00:51:23;;;;;;;9.40;5.47;;;3.90;67.40;;;;;;5200250;28;20125;-65
2021/04/27 00:53:54;;;;;;;8.50;5.65;;;4.00;67.40;;;;;;5202747;28;20044;-65
2021/04/27 00:56:26;;;;;;;12.10;5.65;;;4.10;66.30;;;;;;5231633;28;20055;-64
2021/04/27 00:58:57;;;;;;;9.95;5.72;;;4.20;65.60;;;;;;5204979;28;20052;-65
2021/04/27 01:01:32;;;;;;;10.27;6.22;;;4.20;65.60;;;;;;5201860;28;20045;-65
2021/04/27 01:04:04;;;;;;;8.68;5.53;;;4.10;65.80;;;;;;5200748;28;20041;-64
2021/04/27 01:06:35;;;;;;;11.05;6.90;;;4.10;65.80;;;;;;5202301;28;20831;-65
2021/04/27 01:09:19;;;;;;;9.13;5.55;;;4.20;65.80;;;;;;5220554;28;20046;-65
2021/04/27 01:12:02;;;;;;;9.00;5.25;;;4.10;65.70;;;;;;5203579;28;20072;-65
2021/04/27 01:14:44;;;;;;;9.30;5.70;;;4.00;66.40;;;;;;5222404;28;20075;-64
2021/04/27 01:17:19;;;;;;;9.85;5.28;;;4.00;66.90;;;;;;5206014;28;20041;-64
2021/04/27 01:20:09;;;;;;;10.10;6.13;;;4.00;67.60;;;;;;5204448;28;20072;-64
2021/04/27 01:22:59;;;;;;;8.18;5.32;;;3.80;68.10;;;;;;5206130;28;20136;-65
2021/04/27 01:25:46;;;;;;;10.60;5.05;;;3.70;68.40;;;;;;5222051;28;20041;-65
2021/04/27 01:28:20;;;;;;;8.00;5.35;;;3.70;68.90;;;;;;5206440;28;20670;-64
2021/04/27 01:30:52;;;;;;;10.82;6.00;;;3.60;69.00;;;;;;5203042;28;20055;-64
2021/04/27 01:33:28;;;;;;;10.05;5.38;;;3.60;69.10;;;;;;5207280;28;20053;-64
2021/04/27 01:36:02;;;;;;;9.50;5.68;;;3.60;69.10;;;;;;5203729;28;20073;-65
2021/04/27 01:38:38;;;;;;;10.00;5.72;;;3.60;69.10;;;;;;5208178;28;20511;-65
2021/04/27 01:41:10;;;;;;;11.43;5.85;;;3.60;69.20;;;;;;5216511;28;20408;-65
2021/04/27 01:43:47;;;;;;;10.05;5.20;;;3.60;69.10;;;;;;5202997;28;20553;-65
2021/04/27 01:46:20;;;;;;;10.13;5.80;;;3.50;69.40;;;;;;5205754;28;20491;-65
2021/04/27 01:48:53;;;;;;;10.23;5.93;;;3.40;70.20;;;;;;5208063;28;20103;-64
2021/04/27 01:51:28;;;;;;;9.60;5.78;;;3.30;70.80;;;;;;5207145;28;20038;-65
2021/04/27 01:54:28;;;;;;;8.27;5.75;;;3.20;70.80;;;;;;5205610;28;20052;-65
2021/04/27 01:57:00;;;;;;;9.52;5.75;;;3.20;71.20;;;;;;5202267;28;20418;-65
2021/04/27 01:59:32;;;;;;;9.02;5.65;;;3.20;71.00;;;;;;5204429;28;20057;-65
2021/04/27 02:02:03;;;;;;;11.57;6.05;;;3.20;71.80;;;;;;5202557;28;20053;-65
2021/04/27 02:04:35;;;;;;;11.38;6.15;;;3.10;71.40;;;;;;5193581;28;20510;-64
2021/04/27 02:07:33;;;;;;;11.20;5.80;;;3.10;71.60;;;;;;5202882;28;20049;-65
2021/04/27 02:10:08;;;;;;;8.52;5.78;;;3.10;71.20;;;;;;5202395;28;20509;-65
2021/04/27 02:12:52;;;;;;;9.48;5.53;;;3.10;71.20;;;;;;5209188;28;20156;-65
2021/04/27 02:15:26;;;;;;;9.73;5.53;;;3.20;71.30;;;;;;5204699;28;20049;-64
2021/04/27 02:18:11;;;;;;;9.38;5.45;;;3.00;71.60;;;;;;5176300;28;20037;-65
2021/04/27 02:20:44;;;;;;;14.27;5.63;;;3.10;71.40;;;;;;5203038;28;20531;-65
2021/04/27 02:23:35;;;;;;;9.68;5.93;;;3.20;71.20;;;;;;5205232;28;20127;-64
2021/04/27 02:26:15;;;;;;;10.05;5.60;;;3.30;71.30;;;;;;5223689;28;20045;-65
2021/04/27 02:28:53;;;;;;;14.25;5.22;;;3.20;71.30;;;;;;5208785;28;20133;-65
2021/04/27 02:31:25;;;;;;;10.18;5.68;;;3.20;71.30;;;;;;5236363;28;20064;-65
2021/04/27 02:34:00;;;;;;;9.55;5.63;;;3.20;71.00;;;;;;5219439;28;20503;-64
2021/04/27 02:36:36;;;;;;;9.57;5.32;;;3.20;71.10;;;;;;5217827;28;20494;-64
2021/04/27 02:39:22;;;;;;;10.30;5.68;;;3.30;70.30;;;;;;5238188;28;20046;-64
2021/04/27 02:41:54;;;;;;;8.68;5.57;;;3.30;70.00;;;;;;5222829;28;20072;-65
2021/04/27 02:44:44;;;;;;;9.13;5.40;;;3.30;70.10;;;;;;5207709;28;20076;-66
2021/04/27 02:47:22;;;;;;;9.43;5.78;;;3.40;70.20;;;;;;5201740;28;20041;-65
2021/04/27 02:49:55;;;;;;;9.43;5.95;;;3.30;70.10;;;;;;5237768;28;20423;-65
2021/04/27 02:52:27;;;;;;;9.48;5.82;;;3.20;70.00;;;;;;5206138;28;20038;-65
2021/04/27 02:55:04;;;;;;;9.65;5.78;;;3.20;70.00;;;;;;5203298;28;20038;-65
2021/04/27 02:57:39;;;;;;;10.73;5.70;;;3.20;70.10;;;;;;5203409;28;20048;-68
2021/04/27 03:00:12;;;;;;;10.80;5.68;;;3.30;69.10;;;;;;5202036;28;20057;-64
2021/04/27 03:02:54;;;;;;;9.63;5.85;;;3.40;68.80;;;;;;5208887;28;20050;-65
2021/04/27 03:05:28;;;;;;;9.18;5.72;;;3.30;70.20;;;;;;5204751;28;20392;-65
2021/04/27 03:08:09;;;;;;;9.43;5.53;;;3.30;68.40;;;;;;5219292;28;20052;-65
2021/04/27 03:10:40;;;;;;;9.93;5.97;;;3.30;68.70;;;;;;5200669;28;20051;-67
2021/04/27 03:13:12;;;;;;;9.85;5.85;;;3.40;68.10;;;;;;5201450;28;20671;-65
2021/04/27 03:15:56;;;;;;;11.07;5.78;;;3.30;68.50;;;;;;5203669;28;20130;-65
2021/04/27 03:18:27;;;;;;;9.60;6.07;;;3.30;67.70;;;;;;5203523;28;20102;-65
2021/04/27 03:20:59;;;;;;;8.50;5.25;;;3.30;67.40;;;;;;5187767;28;20128;-65
2021/04/27 03:23:33;;;;;;;9.43;5.63;;;3.20;67.50;;;;;;5218327;28;20056;-65
2021/04/27 03:26:04;;;;;;;9.68;5.93;;;3.20;67.20;;;;;;5204390;28;20059;-65
2021/04/27 03:28:49;;;;;;;9.15;5.10;;;3.30;66.90;;;;;;5203011;28;20046;-65
2021/04/27 03:31:23;;;;;;;8.68;5.53;;;3.20;67.50;;;;;;5192547;28;20050;-64
2021/04/27 03:33:56;;;;;;;10.00;5.72;;;3.10;69.10;;;;;;5187266;28;20045;-65
2021/04/27 03:36:28;;;;;;;9.93;5.45;;;3.00;70.40;;;;;;5235023;28;20045;-65
2021/04/27 03:39:05;;;;;;;9.77;5.47;;;3.00;70.50;;;;;;5207448;28;20041;-65
2021/04/27 03:41:37;;;;;;;8.75;5.47;;;3.00;70.50;;;;;;5186736;28;20092;-65
2021/04/27 03:44:08;;;;;;;9.93;5.45;;;3.00;70.00;;;;;;5203442;28;20506;-65
2021/04/27 03:46:42;;;;;;;11.68;6.68;;;2.90;69.50;;;;;;5197137;28;20048;-67
2021/04/27 03:49:14;;;;;;;9.30;6.32;;;3.00;70.90;;;;;;5200294;28;20095;-65
2021/04/27 03:51:46;;;;;;;10.20;5.75;;;2.90;71.90;;;;;;5200452;28;20519;-65
2021/04/27 03:54:20;;;;;;;9.23;5.60;;;2.90;71.60;;;;;;5201937;28;20490;-64
2021/04/27 03:56:52;;;;;;;11.35;6.30;;;2.90;70.70;;;;;;5198949;28;20545;-64
2021/04/27 03:59:25;;;;;;;8.98;5.78;;;2.80;71.40;;;;;;5204454;28;20537;-64
2021/04/27 04:01:57;;;;;;;9.73;5.78;;;2.80;72.40;;;;;;5204642;28;20048;-65
2021/04/27 04:04:29;;;;;;;9.35;6.28;;;2.80;72.70;;;;;;5204097;28;20416;-64
2021/04/27 04:07:33;;;;;;;8.65;5.82;;;2.80;72.10;;;;;;5202088;28;20049;-64
2021/04/27 04:10:24;;;;;;;9.38;5.80;;;2.90;71.50;;;;;;5230678;28;20140;-65
2021/04/27 04:12:56;;;;;;;13.90;6.82;;;3.00;70.60;;;;;;5204161;28;20053;-64
2021/04/27 04:15:27;;;;;;;11.43;6.65;;;3.00;69.90;;;;;;5182547;28;20103;-64
2021/04/27 04:18:00;;;;;;;9.77;5.75;;;3.10;69.10;;;;;;5202021;28;20037;-66
2021/04/27 04:20:32;;;;;;;10.45;5.90;;;3.20;68.20;;;;;;5202219;28;20041;-64
2021/04/27 04:23:24;;;;;;;10.82;6.03;;;3.20;68.70;;;;;;5196730;28;20054;-64
2021/04/27 04:25:56;;;;;;;8.27;5.60;;;3.10;69.00;;;;;;5203142;28;20116;-65
2021/04/27 04:28:28;;;;;;;13.52;6.70;;;3.00;69.10;;;;;;5204574;28;20029;-65
2021/04/27 04:31:00;;;;;;;10.23;5.88;;;3.00;70.60;;;;;;5233746;28;20550;-65
2021/04/27 04:33:54;;;;;;;9.75;5.95;;;2.90;72.30;;;;;;5204535;28;20422;-65
2021/04/27 04:36:45;;;;;;;10.13;5.68;;;2.80;72.30;;;;;;5203517;28;20553;-64
2021/04/27 04:39:36;;;;;;;12.13;5.90;;;2.70;73.10;;;;;;5205355;28;20041;-65
2021/04/27 04:42:26;;;;;;;9.48;5.72;;;2.70;73.30;;;;;;5200755;28;20077;-65
2021/04/27 04:45:21;;;;;;;10.02;5.95;;;2.70;73.30;;;;;;5193355;28;20041;-66
2021/04/27 04:48:31;;;;;;;12.60;5.30;;;2.80;71.90;;;;;;5149293;28;20042;-65
2021/04/27 04:51:21;;;;;;;11.85;6.38;;;3.00;70.80;;;;;;5148031;28;20057;-65
2021/04/27 04:54:13;;;;;;;9.23;5.70;;;3.20;70.00;;;;;;5195149;28;20503;-65
2021/04/27 04:56:46;;;;;;;9.48;5.57;;;3.30;69.60;;;;;;5214644;28;20041;-65
2021/04/27 04:59:18;;;;;;;11.73;5.90;;;3.50;69.70;;;;;;5194847;28;20041;-65
2021/04/27 05:01:50;;;;;;;11.55;5.78;;;3.60;68.70;;;;;;5197298;28;20038;-65
2021/04/27 05:04:53;;;;;;;9.32;5.68;;;3.70;68.70;;;;;;5177493;28;20045;-65
2021/04/27 05:07:56;;;;;;;10.85;6.05;;;3.90;68.20;;;;;;5201833;28;20037;-66
2021/04/27 05:10:46;;;;;;;10.13;6.10;;;4.00;67.90;;;;;;5220809;28;20424;-66
2021/04/27 05:13:32;;;;;;;9.38;6.00;;;4.20;67.70;;;;;;5215914;28;20045;-64
2021/04/27 05:16:04;;;;;;;11.88;6.15;;;4.30;67.60;;;;;;5197289;28;20041;-65
2021/04/27 05:18:40;;;;;;;9.00;6.07;;;4.30;67.30;;;;;;5200953;28;20541;-65
2021/04/27 05:21:12;;;;;;;11.85;6.53;;;4.50;66.90;;;;;;5199834;28;20195;-65
2021/04/27 05:23:44;;;;;;;10.80;6.55;;;4.60;66.50;;;;;;5204270;28;20053;-64
2021/04/27 05:26:17;;;;;;;12.18;7.20;;;4.70;66.40;;;;;;5201502;28;20049;-65
2021/04/27 05:28:49;;;;;;;11.77;6.43;;;4.90;65.90;;;;;;5202231;28;20033;-64
2021/04/27 05:31:21;;;;;;;12.50;6.63;;;5.00;65.70;;;;;;5196967;28;20651;-64
2021/04/27 05:33:53;;;;;;;12.10;6.20;;;5.10;65.20;;;;;;5191547;28;20073;-66
2021/04/27 05:36:24;;;;;;;14.05;6.20;;;5.20;65.90;;;;;;5197466;28;20450;-65
2021/04/27 05:38:56;;;;;;;13.68;5.90;;;5.40;64.60;;;;;;5195175;28;20615;-65
2021/04/27 05:41:28;;;;;;;11.90;6.50;;;5.50;64.30;;;;;;5201161;28;20499;-65
2021/04/27 05:44:00;;;;;;;12.88;5.85;;;5.60;64.40;;;;;;5197690;28;20042;-65
2021/04/27 05:46:31;;;;;;;10.27;6.20;;;5.80;64.10;;;;;;5202578;28;20098;-65
2021/04/27 05:49:03;;;;;;;11.18;5.80;;;5.90;64.20;;;;;;5198420;28;20045;-65
2021/04/27 05:51:35;;;;;;;9.73;6.03;;;6.10;64.00;;;;;;5199830;28;20046;-65
2021/04/27 05:54:06;;;;;;;10.70;6.40;;;6.30;62.90;;;;;;5202482;28;20037;-65
2021/04/27 05:57:09;;;;;;;10.93;6.30;;;6.40;63.40;;;;;;5203847;28;20168;-64
2021/04/27 05:59:41;;;;;;;11.30;6.43;;;6.50;62.80;;;;;;5206704;28;20522;-65
2021/04/27 06:02:12;;;;;;;13.68;7.70;;;6.70;62.10;;;;;;5203897;28;20474;-65
2021/04/27 06:04:43;;;;;;;12.93;7.32;;;6.70;60.70;;;;;;5207004;28;20049;-65
2021/04/27 06:07:15;;;;;;;12.88;7.30;;;6.70;62.20;;;;;;5204923;28;20066;-64
2021/04/27 06:09:46;;;;;;;12.90;6.70;;;6.80;61.60;;;;;;5204373;28;20094;-64
2021/04/27 06:12:18;;;;;;;11.00;6.53;;;7.00;61.60;;;;;;5205130;28;20471;-65
2021/04/27 06:14:49;;;;;;;12.55;7.53;;;7.20;61.10;;;;;;5182761;28;20029;-63
2021/04/27 06:17:21;;;;;;;10.05;6.65;;;7.30;61.20;;;;;;5203261;28;20509;-65
2021/04/27 06:19:52;;;;;;;12.48;6.97;;;7.50;60.90;;;;;;5206720;28;20106;-64
2021/04/27 06:22:24;;;;;;;10.43;6.97;;;7.70;60.30;;;;;;5204238;28;20629;-63
2021/04/27 06:24:55;;;;;;;12.45;7.10;;;7.80;59.20;;;;;;5205876;28;20495;-63
2021/04/27 06:27:30;;;;;;;10.27;7.13;;;7.80;58.50;;;;;;5206017;28;20069;-63
2021/04/27 06:30:03;;;;;;;11.05;6.82;;;7.90;58.40;;;;;;5203662;28;20112;-63
2021/04/27 06:32:35;;;;;;;13.50;7.45;;;7.90;57.90;;;;;;5203734;28;20479;-63
2021/04/27 09:26:57;;;;;;;13.25;6.93;;;14.40;42.40;;;;;;5201430;28;20549;-64
2021/04/27 09:29:31;;;;;;;11.18;7.10;;;14.60;42.90;;;;;;5202938;28;20520;-64
2021/04/27 09:32:03;;;;;;;11.32;7.63;;;14.70;42.00;;;;;;5232291;28;20065;-63
2021/04/27 09:34:38;;;;;;;11.95;7.00;;;14.70;41.00;;;;;;5204561;28;20059;-65
2021/04/27 09:37:11;;;;;;;9.80;6.55;;;14.70;43.10;;;;;;5205397;28;20064;-64
2021/04/27 09:39:50;;;;;;;10.13;7.20;;;14.80;42.90;;;;;;5208086;28;21021;-64
2021/04/27 09:42:23;;;;;;;11.00;7.22;;;15.00;40.50;;;;;;5205765;28;20068;-64
2021/04/27 09:44:56;;;;;;;10.10;7.30;;;14.90;42.30;;;;;;5208643;28;20511;-64
2021/04/27 09:47:33;;;;;;;10.40;7.40;;;15.00;42.20;;;;;;5208085;28;20061;-64
2021/04/27 09:50:08;;;;;;;10.60;7.55;;;15.00;40.10;;;;;;5205723;28;20056;-64
2021/04/27 09:52:44;;;;;;;11.70;7.55;;;15.00;41.30;;;;;;5204942;28;20069;-64
2021/04/27 09:55:20;;;;;;;10.95;7.15;;;15.10;41.30;;;;;;5203393;28;20045;-65
2021/04/27 09:57:55;;;;;;;10.25;7.60;;;15.30;42.60;;;;;;5205360;28;20041;-67
2021/04/27 10:00:39;;;;;;;9.75;7.38;;;15.40;41.00;;;;;;5203506;28;20045;-64
2021/04/27 10:03:12;;;;;;;12.10;7.63;;;15.40;41.60;;;;;;5205719;28;20128;-64
2021/04/27 10:05:45;;;;;;;11.02;7.60;;;15.40;41.30;;;;;;5205737;28;20037;-64
2021/04/27 10:08:17;;;;;;;10.30;7.30;;;15.40;41.20;;;;;;5206203;28;20562;-65
2021/04/27 10:10:49;;;;;;;10.02;8.18;;;15.50;39.90;;;;;;5204549;28;20045;-64
2021/04/27 10:13:21;;;;;;;11.30;7.97;;;15.60;41.10;;;;;;5206121;28;20053;-64
2021/04/27 10:15:52;;;;;;;11.00;7.75;;;15.60;41.50;;;;;;5204583;28;20095;-64
2021/04/27 10:18:30;;;;;;;14.25;9.10;;;15.70;41.00;;;;;;5205080;28;20064;-64
2021/04/27 10:21:05;;;;;;;11.63;7.95;;;15.60;41.10;;;;;;5206362;28;20531;-64
2021/04/27 10:23:39;;;;;;;11.40;7.82;;;15.80;40.90;;;;;;5205042;28;20570;-64
2021/04/27 10:26:11;;;;;;;10.85;7.55;;;15.90;40.90;;;;;;5203711;28;20041;-64
2021/04/27 10:29:07;;;;;;;10.20;7.70;;;16.00;40.70;;;;;;5205522;28;20080;-64
2021/04/27 10:31:39;;;;;;;11.20;8.52;;;16.00;39.30;;;;;;5206138;28;20049;-64
2021/04/27 10:34:17;;;;;;;9.20;7.68;;;16.00;40.10;;;;;;5205838;28;20048;-64
2021/04/27 10:36:49;;;;;;;11.45;7.78;;;16.10;39.90;;;;;;5204662;28;20115;-64
2021/04/27 10:39:42;;;;;;;10.45;7.60;;;16.10;39.10;;;;;;5205973;28;20048;-65
2021/04/27 10:42:18;;;;;;;11.70;8.57;;;16.30;39.70;;;;;;5203473;28;20029;-64
2021/04/27 10:44:54;;;;;;;10.63;7.53;;;16.30;40.30;;;;;;5203355;28;20506;-64
2021/04/27 10:47:27;;;;;;;9.93;7.18;;;16.50;39.40;;;;;;5203636;28;20430;-64
2021/04/27 10:49:59;;;;;;;10.25;7.75;;;16.60;38.80;;;;;;5202789;28;20045;-64
2021/04/27 10:52:41;;;;;;;10.80;7.22;;;16.70;38.20;;;;;;5204552;28;20324;-63
2021/04/27 10:55:28;;;;;;;9.10;7.20;;;16.90;38.70;;;;;;5203905;28;20099;-66
2021/04/27 10:58:04;;;;;;;9.73;7.18;;;17.10;37.80;;;;;;5206163;28;20767;-64
2021/04/27 11:01:14;;;;;;;12.00;7.43;;;17.20;37.10;;;;;;5205455;28;20454;-66
2021/04/27 11:03:54;;;;;;;9.48;7.70;;;17.30;37.10;;;;;;5200002;28;20037;-65
2021/04/27 11:06:26;;;;;;;11.68;8.23;;;17.30;36.50;;;;;;5206098;28;20137;-62
2021/04/27 11:09:11;;;;;;;9.00;8.02;;;17.40;36.00;;;;;;5204950;28;20564;-62
2021/04/27 11:11:42;;;;;;;11.50;7.45;;;17.40;36.40;;;;;;5203713;28;20049;-62
2021/04/27 11:14:24;;;;;;;12.25;8.23;;;17.50;36.00;;;;;;5205145;28;20033;-61
2021/04/27 11:16:58;;;;;;;10.80;7.68;;;17.70;36.20;;;;;;5202601;28;20051;-62
2021/04/27 11:19:35;;;;;;;12.27;8.05;;;17.60;36.00;;;;;;5204258;28;21020;-61
2021/04/27 11:22:18;;;;;;;9.43;7.70;;;17.80;37.80;;;;;;5202431;28;20054;-62
2021/04/27 11:24:52;;;;;;;10.88;8.32;;;17.90;37.70;;;;;;5205764;28;20799;-62
2021/04/27 11:27:25;;;;;;;11.35;7.82;;;18.20;37.60;;;;;;5203022;28;20061;-62
2021/04/27 11:30:04;;;;;;;10.48;8.15;;;18.40;37.40;;;;;;5202646;28;20119;-63
2021/04/27 11:32:39;;;;;;;10.10;8.45;;;18.50;36.20;;;;;;5206058;28;20045;-62
2021/04/27 11:35:16;;;;;;;10.90;8.63;;;18.50;34.20;;;;;;5202829;28;20040;-62
2021/04/27 11:37:53;;;;;;;12.02;8.43;;;18.50;34.40;;;;;;5203603;28;20037;-62
2021/04/27 11:40:30;;;;;;;8.93;7.82;;;18.60;35.50;;;;;;5204328;28;20772;-62
2021/04/27 11:43:11;;;;;;;9.70;8.05;;;18.80;34.00;;;;;;5202434;28;20150;-64
2021/04/27 11:45:49;;;;;;;12.40;8.45;;;18.90;34.50;;;;;;5201794;28;20144;-62
2021/04/27 11:48:22;;;;;;;9.02;7.80;;;19.00;34.50;;;;;;5205515;28;20522;-63
2021/04/27 11:50:53;;;;;;;9.20;8.13;;;19.10;34.00;;;;;;5204482;28;20050;-62
2021/04/27 11:53:26;;;;;;;9.73;7.72;;;19.10;33.30;;;;;;5204648;28;20045;-62
2021/04/27 11:55:58;;;;;;;12.43;8.82;;;19.10;33.10;;;;;;5202579;28;20054;-62
2021/04/27 11:58:35;;;;;;;12.48;7.57;;;19.10;32.10;;;;;;5203138;28;20045;-62
2021/04/27 12:01:08;;;;;;;10.85;8.48;;;19.10;34.30;;;;;;5199541;28;20633;-61
2021/04/27 12:03:48;;;;;;;11.52;8.52;;;19.30;33.20;;;;;;5204786;28;20044;-62
2021/04/27 12:06:20;;;;;;;9.70;8.35;;;19.40;33.50;;;;;;5201299;28;20219;-62
2021/04/27 12:08:55;;;;;;;11.68;8.55;;;19.60;33.10;;;;;;5199704;28;20160;-65
2021/04/27 12:11:33;;;;;;;12.15;8.88;;;19.70;33.40;;;;;;5199068;28;20201;-63
2021/04/27 12:14:17;;;;;;;10.15;8.60;;;19.80;32.20;;;;;;5195400;28;20049;-61
2021/04/27 12:16:49;;;;;;;11.52;8.50;;;19.80;32.10;;;;;;5201639;28;20057;-61
2021/04/27 12:19:26;;;;;;;11.60;8.52;;;19.70;33.40;;;;;;5200005;28;20725;-62
2021/04/27 12:22:05;;;;;;;15.23;11.13;;;19.30;33.40;;;;;;5198465;28;20132;-61
2021/04/27 12:24:39;;;;;;;10.18;8.45;;;19.50;33.40;;;;;;5197728;28;20041;-61
2021/04/27 12:27:18;;;;;;;10.93;8.23;;;19.80;32.70;;;;;;5199516;28;20044;-62
2021/04/27 12:30:06;;;;;;;10.18;8.60;;;20.00;32.50;;;;;;5231322;28;20049;-62
2021/04/27 12:32:41;;;;;;;10.70;8.82;;;20.20;32.50;;;;;;5230676;28;20054;-62
2021/04/27 12:35:18;;;;;;;11.90;8.80;;;20.20;32.10;;;;;;5199419;28;20045;-62
2021/04/27 12:38:09;;;;;;;10.50;8.40;;;20.30;32.10;;;;;;5202348;28;20046;-62
2021/04/27 12:40:42;;;;;;;9.80;8.73;;;20.50;32.60;;;;;;5200827;28;20108;-61
2021/04/27 12:43:14;;;;;;;11.95;8.77;;;20.30;32.40;;;;;;5204647;28;20045;-62
2021/04/27 12:45:56;;;;;;;10.68;8.80;;;19.90;32.00;;;;;;5199676;28;20049;-62
2021/04/27 12:48:32;;;;;;;11.38;9.23;;;19.60;32.70;;;;;;5201509;28;20045;-62
2021/04/27 12:51:05;;;;;;;10.18;8.85;;;19.60;32.80;;;;;;5198069;28;20065;-61
2021/04/27 12:53:42;;;;;;;13.05;9.05;;;19.50;32.90;;;;;;5200380;28;20068;-61
2021/04/27 12:56:17;;;;;;;10.07;8.85;;;19.50;32.20;;;;;;5194651;28;20072;-61
2021/04/27 12:58:49;;;;;;;11.05;8.82;;;19.30;32.90;;;;;;5203503;28;20103;-62
2021/04/27 13:01:23;;;;;;;10.70;9.15;;;19.60;33.00;;;;;;5200519;28;20117;-62
2021/04/27 13:03:59;;;;;;;11.75;9.02;;;19.80;32.40;;;;;;5200407;28;20136;-62
2021/04/27 13:06:35;;;;;;;11.65;8.88;;;19.90;32.20;;;;;;5231441;28;20159;-62
2021/04/27 13:09:09;;;;;;;11.82;9.50;;;20.20;32.60;;;;;;5203849;28;20045;-62
2021/04/27 13:12:04;;;;;;;14.05;9.40;;;20.40;32.10;;;;;;5205809;28;20068;-61
2021/04/27 13:14:39;;;;;;;11.20;9.30;;;20.60;31.30;;;;;;5203112;28;20053;-62
2021/04/27 13:17:23;;;;;;;11.05;8.85;;;20.70;32.00;;;;;;5204380;28;20042;-62
2021/04/27 13:20:07;;;;;;;11.75;8.70;;;21.00;32.30;;;;;;5207879;28;20055;-64
2021/04/27 13:22:41;;;;;;;11.02;9.77;;;21.00;31.60;;;;;;5205667;28;20073;-62
2021/04/27 13:25:18;;;;;;;12.02;10.00;;;21.00;30.80;;;;;;5206698;28;20060;-62
2021/04/27 13:27:51;;;;;;;11.25;9.75;;;20.70;31.00;;;;;;5204198;28;20040;-63
2021/04/27 13:30:34;;;;;;;11.35;9.85;;;20.30;31.50;;;;;;5203658;28;20071;-61
2021/04/27 13:33:10;;;;;;;10.40;8.98;;;20.50;32.00;;;;;;5206095;28;20462;-62
2021/04/27 13:35:50;;;;;;;12.57;9.85;;;20.60;31.70;;;;;;5203577;28;20439;-62
2021/04/27 13:38:23;;;;;;;12.15;9.68;;;20.40;31.70;;;;;;5204277;28;20036;-62
2021/04/27 13:40:56;;;;;;;12.07;10.02;;;20.60;31.90;;;;;;5204120;28;20073;-62
2021/04/27 13:43:32;;;;;;;11.32;9.23;;;20.80;31.40;;;;;;5205582;28;20566;-61
2021/04/27 13:46:06;;;;;;;10.77;9.68;;;21.10;31.00;;;;;;5204349;28;20041;-61
2021/04/27 13:48:37;;;;;;;12.00;9.95;;;21.00;30.90;;;;;;5206817;28;20065;-62
2021/04/27 13:51:12;;;;;;;11.30;10.10;;;20.80;31.20;;;;;;5236761;28;20155;-61
2021/04/27 13:53:43;;;;;;;12.50;9.48;;;20.80;31.30;;;;;;5235301;28;20068;-61
2021/04/27 13:56:16;;;;;;;10.60;9.60;;;21.20;32.00;;;;;;5205042;28;20056;-62
2021/04/27 13:58:48;;;;;;;11.77;10.57;;;21.60;31.30;;;;;;5203799;28;20116;-62
2021/04/27 14:01:19;;;;;;;12.75;9.73;;;21.80;29.30;;;;;;5206748;28;20045;-63
2021/04/27 14:03:52;;;;;;;11.13;9.85;;;21.60;29.80;;;;;;5204823;28;20506;-62
2021/04/27 14:06:44;;;;;;;12.02;9.77;;;21.70;30.40;;;;;;5235765;28;20053;-62
2021/04/27 14:09:15;;;;;;;12.63;10.10;;;22.00;29.80;;;;;;5201040;28;20048;-62
2021/04/27 14:11:47;;;;;;;10.70;9.38;;;22.10;28.60;;;;;;5204310;28;20413;-62
2021/04/27 14:14:19;;;;;;;10.15;9.15;;;22.30;29.30;;;;;;5235022;28;20044;-61
2021/04/27 14:16:50;;;;;;;11.68;9.65;;;22.50;29.40;;;;;;5199876;28;20045;-62
2021/04/27 14:19:22;;;;;;;10.75;9.57;;;22.60;29.00;;;;;;5204868;28;20061;-62
2021/04/27 14:21:53;;;;;;;11.35;9.82;;;22.70;28.90;;;;;;5203367;28;20168;-62
2021/04/27 14:24:26;;;;;;;10.93;9.85;;;22.80;28.50;;;;;;5204807;28;20103;-62
2021/04/27 14:26:58;;;;;;;11.07;9.85;;;22.90;29.40;;;;;;5202925;28;20045;-62
2021/04/27 14:29:29;;;;;;;13.55;10.60;;;23.00;28.80;;;;;;5203320;28;20411;-62
2021/04/27 14:32:05;;;;;;;10.73;9.50;;;23.10;28.00;;;;;;5203974;28;20119;-62
2021/04/27 14:34:37;;;;;;;11.27;10.07;;;22.90;28.40;;;;;;5201411;28;20048;-62
2021/04/27 14:37:09;;;;;;;15.27;10.38;;;23.20;27.70;;;;;;5200555;28;20842;-61
2021/04/27 14:39:41;;;;;;;11.07;9.93;;;23.40;28.00;;;;;;5202541;28;20049;-62
2021/04/27 14:42:12;;;;;;;11.30;9.55;;;23.50;28.10;;;;;;5201892;28;20072;-62
2021/04/27 14:44:44;;;;;;;11.43;10.23;;;23.70;27.60;;;;;;5206756;28;20149;-62
2021/04/27 14:47:16;;;;;;;13.57;11.00;;;23.90;27.60;;;;;;5203722;28;20064;-62
2021/04/27 14:49:47;;;;;;;11.73;10.27;;;24.00;26.50;;;;;;5205491;28;20048;-62
2021/04/27 14:52:19;;;;;;;11.70;9.68;;;24.10;27.10;;;;;;5205430;28;20561;-62
2021/04/27 14:54:50;;;;;;;14.70;11.52;;;24.30;27.80;;;;;;5203538;28;20045;-62
2021/04/27 14:57:21;;;;;;;11.68;10.05;;;24.60;27.30;;;;;;5203697;28;20033;-62
2021/04/27 14:59:53;;;;;;;12.43;11.15;;;24.90;27.70;;;;;;5201890;28;20077;-62
2021/04/27 15:02:25;;;;;;;12.95;11.30;;;25.20;27.50;;;;;;5197316;28;20568;-61
2021/04/27 15:04:56;;;;;;;11.63;10.52;;;25.20;26.80;;;;;;5206939;28;20041;-61
2021/04/27 15:07:28;;;;;;;11.52;10.32;;;25.30;25.30;;;;;;5203385;28;20612;-61
2021/04/27 15:10:00;;;;;;;12.75;11.45;;;25.30;26.20;;;;;;5203644;28;20140;-63
2021/04/27 15:12:33;;;;;;;11.80;10.25;;;25.20;26.30;;;;;;5203609;28;20046;-62
2021/04/27 15:15:06;;;;;;;12.15;10.95;;;25.20;27.90;;;;;;5204566;28;20045;-61
2021/04/27 15:17:38;;;;;;;13.90;11.00;;;25.60;25.90;;;;;;5206026;28;20037;-62
2021/04/27 15:20:11;;;;;;;12.77;11.40;;;25.90;25.20;;;;;;5201765;28;20632;-62
2021/04/27 15:22:43;;;;;;;12.60;11.40;;;26.20;26.50;;;;;;5203361;28;20518;-63
2021/04/27 15:25:17;;;;;;;12.55;11.35;;;26.40;26.10;;;;;;5198956;28;20445;-63
2021/04/27 15:27:48;;;;;;;12.57;11.38;;;26.60;25.60;;;;;;5201988;28;20115;-61
2021/04/27 15:30:20;;;;;;;12.48;11.27;;;26.70;24.30;;;;;;5202053;28;20049;-61
2021/04/27 15:32:53;;;;;;;14.05;12.10;;;26.70;25.30;;;;;;5204370;28;20464;-62
2021/04/27 15:35:24;;;;;;;13.38;12.02;;;26.80;24.90;;;;;;5217603;28;20114;-62
2021/04/27 15:37:56;;;;;;;13.20;11.90;;;26.90;24.50;;;;;;5201961;28;20041;-61
2021/04/27 15:40:30;;;;;;;12.45;11.15;;;26.70;25.30;;;;;;5198778;28;20103;-61
2021/04/27 15:43:04;;;;;;;12.43;11.23;;;26.80;24.60;;;;;;5227400;28;20411;-62
2021/04/27 15:45:37;;;;;;;13.38;12.20;;;27.10;24.00;;;;;;5203650;28;20144;-62
2021/04/27 15:48:09;;;;;;;12.65;11.50;;;27.20;23.90;;;;;;5199788;28;20452;-62
2021/04/27 15:50:41;;;;;;;12.52;11.43;;;27.20;25.30;;;;;;5198312;28;21021;-63
2021/04/27 15:53:12;;;;;;;13.95;12.40;;;27.50;24.40;;;;;;5202316;28;20107;-61
2021/04/27 15:55:45;;;;;;;14.23;12.93;;;27.60;23.20;;;;;;5188452;28;21002;-62
2021/04/27 15:58:16;;;;;;;14.30;12.75;;;27.60;24.40;;;;;;5201018;28;20049;-62
2021/04/27 16:00:48;;;;;;;14.20;12.90;;;27.60;24.20;;;;;;5198296;28;20074;-61
2021/04/27 16:03:19;;;;;;;13.90;12.70;;;27.90;22.70;;;;;;5202501;28;20123;-62
2021/04/27 16:05:52;;;;;;;14.45;13.07;;;28.00;23.80;;;;;;5204532;28;20045;-61
2021/04/27 16:08:23;;;;;;;14.82;13.63;;;28.10;23.90;;;;;;5202218;28;20107;-62
2021/04/27 16:10:55;;;;;;;15.00;13.60;;;28.60;23.60;;;;;;5200966;28;20052;-62
2021/04/27 16:13:27;;;;;;;15.88;14.48;;;28.90;23.30;;;;;;5202134;28;20041;-62
2021/04/27 16:15:58;;;;;;;15.77;14.27;;;28.90;22.60;;;;;;5203530;28;20049;-62
2021/04/27 16:18:30;;;;;;;15.65;14.25;;;29.30;21.40;;;;;;5201735;28;20732;-62